createdAt,value
2022-11-18T00:01:33.109Z,4.88
2022-11-18T00:04:01.880Z,4.32
2022-11-18T00:06:31.559Z,5.03
2022-11-18T00:09:01.354Z,4.40
2022-11-18T00:11:48.238Z,4.63
2022-11-18T00:14:21.333Z,5.28
2022-11-18T00:16:53.142Z,5.18
2022-11-18T00:21:51.150Z,4.25
2022-11-18T00:24:20.084Z,5.15
2022-11-18T00:26:48.981Z,5.10
2022-11-18T00:29:20.741Z,4.55
2022-11-18T00:31:49.556Z,5.18
2022-11-18T00:34:19.623Z,4.70
2022-11-18T00:36:49.298Z,4.97
2022-11-18T00:39:19.807Z,4.68
2022-11-18T00:42:06.680Z,4.87
2022-11-18T00:44:37.124Z,5.00
2022-11-18T00:47:06.041Z,5.07
2022-11-18T00:49:34.454Z,5.78
2022-11-18T00:52:02.815Z,5.50
2022-11-18T00:54:31.138Z,5.10
2022-11-18T00:56:59.578Z,4.68
2022-11-18T00:59:28.212Z,5.15
2022-11-18T01:01:58.204Z,5.22
2022-11-18T01:04:26.604Z,5.53
2022-11-18T01:06:55.263Z,5.40
2022-11-18T01:09:24.115Z,4.80
2022-11-18T01:12:09.451Z,5.07
2022-11-18T01:14:37.762Z,4.78
2022-11-18T01:17:07.666Z,5.20
2022-11-18T01:19:36.816Z,5.47
2022-11-18T01:22:05.498Z,5.57
2022-11-18T01:24:35.323Z,5.05
2022-11-18T01:27:04.081Z,4.88
2022-11-18T01:29:32.679Z,4.78
2022-11-18T01:32:23.218Z,5.22
2022-11-18T01:34:51.339Z,5.53
2022-11-18T01:37:19.780Z,5.68
2022-11-18T01:39:48.097Z,5.00
2022-11-18T01:42:18.133Z,5.10
2022-11-18T01:45:16.814Z,4.97
2022-11-18T01:47:48.964Z,5.53
2022-11-18T01:50:21.799Z,4.28
2022-11-18T01:52:52.360Z,4.68
2022-11-18T01:55:26.036Z,5.32
2022-11-18T01:58:03.619Z,5.20
2022-11-18T02:00:32.322Z,4.45
2022-11-18T02:03:03.347Z,4.65
2022-11-18T02:05:35.236Z,5.03
2022-11-18T02:08:04.901Z,5.10
2022-11-18T02:10:33.462Z,5.28
2022-11-18T02:13:02.848Z,4.93
2022-11-18T02:15:46.751Z,4.88
2022-11-18T02:18:25.831Z,5.28
2022-11-18T02:21:00.483Z,4.53
2022-11-18T02:23:55.352Z,5.13
2022-11-18T02:27:03.316Z,4.95
2022-11-18T02:29:37.396Z,4.82
2022-11-18T02:32:13.250Z,5.18
2022-11-18T02:34:49.591Z,5.32
2022-11-18T02:37:26.821Z,5.65
2022-11-18T02:40:01.812Z,4.97
2022-11-18T02:42:34.296Z,5.15
2022-11-18T02:45:08.158Z,4.88
2022-11-18T02:47:38.785Z,5.22
2022-11-18T02:50:12.613Z,5.15
2022-11-18T02:52:44.162Z,5.20
2022-11-18T02:55:15.715Z,5.03
2022-11-18T02:57:46.190Z,4.82
2022-11-18T03:00:18.337Z,5.68
2022-11-18T03:02:49.062Z,4.97
2022-11-18T03:05:23.088Z,5.22
2022-11-18T03:07:58.075Z,5.28
2022-11-18T03:10:33.458Z,4.85
2022-11-18T03:13:11.803Z,5.38
2022-11-18T03:15:49.607Z,4.80
2022-11-18T03:18:26.826Z,5.15
2022-11-18T03:21:00.152Z,4.82
2022-11-18T03:23:37.408Z,5.30
2022-11-18T03:26:11.292Z,5.80
2022-11-18T03:28:47.992Z,5.10
2022-11-18T03:31:23.103Z,5.13
2022-11-18T03:33:55.787Z,4.93
2022-11-18T03:36:28.434Z,5.30
2022-11-18T03:39:04.625Z,5.20
2022-11-18T03:41:39.434Z,4.85
2022-11-18T03:44:13.983Z,4.82
2022-11-18T03:46:47.748Z,5.47
2022-11-18T03:49:22.005Z,5.80
2022-11-18T03:51:55.607Z,5.38
2022-11-18T03:54:29.145Z,5.30
2022-11-18T03:57:00.867Z,5.07
2022-11-18T03:59:34.684Z,5.70
2022-11-18T04:02:09.536Z,5.45
2022-11-18T04:04:38.406Z,5.50
2022-11-18T04:07:13.264Z,5.75
2022-11-18T04:09:46.061Z,5.10
2022-11-18T04:12:19.465Z,5.43
2022-11-18T04:14:50.008Z,5.50
2022-11-18T04:17:23.128Z,5.47
2022-11-18T04:19:51.885Z,6.18
2022-11-18T04:22:20.378Z,6.15
2022-11-18T04:24:49.134Z,5.53
2022-11-18T04:27:17.525Z,6.30
2022-11-18T04:29:46.124Z,5.03
2022-11-18T04:32:14.457Z,5.45
2022-11-18T04:34:44.734Z,5.10
2022-11-18T04:37:12.919Z,5.63
2022-11-18T04:39:41.319Z,5.45
2022-11-18T04:42:10.148Z,5.38
2022-11-18T04:44:38.496Z,6.15
2022-11-18T04:47:08.446Z,5.65
2022-11-18T04:49:37.187Z,6.53
2022-11-18T04:52:07.395Z,4.80
2022-11-18T04:54:35.961Z,6.20
2022-11-18T04:57:04.718Z,5.20
2022-11-18T04:59:33.142Z,5.88
2022-11-18T05:02:02.115Z,5.72
2022-11-18T05:04:32.774Z,5.60
2022-11-18T05:07:03.317Z,6.25
2022-11-18T05:09:34.341Z,5.80
2022-11-18T05:12:20.793Z,5.93
2022-11-18T05:14:50.846Z,5.22
2022-11-18T05:17:20.420Z,5.33
2022-11-18T05:19:48.938Z,5.78
2022-11-18T05:22:17.738Z,6.07
2022-11-18T05:24:47.824Z,6.05
2022-11-18T05:27:16.454Z,5.57
2022-11-18T05:29:44.925Z,5.72
2022-11-18T05:32:13.563Z,5.25
2022-11-18T05:34:43.724Z,6.13
2022-11-18T05:37:13.802Z,6.78
2022-11-18T05:39:42.320Z,6.93
2022-11-18T05:42:30.881Z,7.30
2022-11-18T05:44:59.305Z,7.03
2022-11-18T05:47:49.857Z,8.18
2022-11-18T05:50:21.445Z,6.93
2022-11-18T05:52:50.311Z,7.35
2022-11-18T05:55:20.935Z,7.20
2022-11-18T05:57:51.612Z,7.03
2022-11-18T06:00:20.328Z,8.23
2022-11-18T06:02:52.237Z,7.07
2022-11-18T06:05:23.431Z,6.68
2022-11-18T06:07:58.102Z,6.60
2022-11-18T06:10:30.570Z,6.80
2022-11-18T06:13:04.297Z,7.60
2022-11-18T06:15:36.764Z,6.57
2022-11-18T06:18:09.499Z,6.70
2022-11-18T06:20:40.421Z,7.03
2022-11-18T06:23:10.581Z,6.88
2022-11-18T06:25:41.362Z,7.72
2022-11-18T06:28:13.729Z,7.07
2022-11-18T06:30:42.193Z,7.47
2022-11-18T06:33:13.776Z,7.35
2022-11-18T06:35:43.534Z,7.45
2022-11-18T06:38:12.019Z,6.43
2022-11-18T06:40:40.494Z,7.55
2022-11-18T06:43:27.067Z,7.28
2022-11-18T06:46:17.428Z,7.63
2022-11-18T06:48:46.804Z,7.72
2022-11-18T06:51:15.283Z,6.95
2022-11-18T06:53:44.081Z,7.13
2022-11-18T06:56:14.825Z,7.65
2022-11-18T06:58:44.227Z,6.95
2022-11-18T07:01:16.734Z,7.78
2022-11-18T07:03:47.546Z,8.10
2022-11-18T07:06:17.804Z,7.85
2022-11-18T07:08:46.962Z,7.82
2022-11-18T07:11:17.858Z,6.85
2022-11-18T07:13:47.140Z,7.30
2022-11-18T07:16:19.087Z,7.75
2022-11-18T07:18:49.110Z,7.40
2022-11-18T07:21:19.799Z,7.32
2022-11-18T07:23:49.017Z,7.60
2022-11-18T07:26:18.122Z,7.57
2022-11-18T07:28:46.875Z,7.95
2022-11-18T07:31:18.501Z,7.50
2022-11-18T07:33:47.910Z,7.50
2022-11-18T07:36:18.092Z,7.55
2022-11-18T07:38:48.063Z,8.15
2022-11-18T07:41:18.638Z,8.43
2022-11-18T07:43:48.137Z,7.60
2022-11-18T07:46:21.120Z,7.95
2022-11-18T07:48:51.203Z,7.22
2022-11-18T07:51:21.954Z,7.60
2022-11-18T07:53:51.131Z,8.27
2022-11-18T07:56:20.372Z,7.70
2022-11-18T07:58:49.894Z,7.95
2022-11-18T08:01:22.249Z,7.40
2022-11-18T08:03:51.818Z,8.73
2022-11-18T08:06:20.785Z,7.65
2022-11-18T08:08:49.822Z,8.00
2022-11-18T08:11:22.618Z,8.40
2022-11-18T08:13:52.519Z,7.78
2022-11-18T08:18:54.719Z,7.82
2022-11-18T08:21:24.710Z,6.88
2022-11-18T08:23:53.392Z,7.93
2022-11-18T08:26:23.135Z,8.10
2022-11-18T08:28:51.980Z,7.72
2022-11-18T08:31:22.947Z,8.00
2022-11-18T08:33:56.029Z,7.03
2022-11-18T08:36:27.069Z,7.93
2022-11-18T08:38:57.419Z,8.02
2022-11-18T08:41:32.749Z,7.80
2022-11-18T08:44:01.354Z,8.50
2022-11-18T08:46:29.839Z,8.23
2022-11-18T08:49:00.113Z,8.02
2022-11-18T08:51:29.559Z,8.15
2022-11-18T08:53:58.898Z,7.50
2022-11-18T08:56:27.426Z,7.43
2022-11-18T08:58:57.116Z,8.25
2022-11-18T09:01:26.214Z,8.23
2022-11-18T09:04:01.542Z,8.35
2022-11-18T09:06:35.698Z,7.57
2022-11-18T09:09:06.636Z,7.55
2022-11-18T09:11:39.398Z,7.75
2022-11-18T09:17:01.194Z,7.85
2022-11-18T09:19:48.382Z,8.07
2022-11-18T09:22:19.517Z,7.93
2022-11-18T09:24:50.729Z,8.02
2022-11-18T09:27:21.786Z,8.70
2022-11-18T09:29:51.326Z,9.38
2022-11-18T09:32:21.951Z,9.30
2022-11-18T09:34:52.015Z,8.60
2022-11-18T09:37:33.891Z,8.85
2022-11-18T09:40:04.015Z,9.45
2022-11-18T09:42:53.603Z,9.55
2022-11-18T09:45:26.964Z,7.82
2022-11-18T09:48:00.584Z,8.52
2022-11-18T09:53:22.733Z,10.43
2022-11-18T09:55:53.503Z,10.05
2022-11-18T09:58:29.225Z,9.65
2022-11-18T10:00:57.849Z,10.57
2022-11-18T10:03:30.023Z,9.85
2022-11-18T10:08:37.324Z,8.77
2022-11-18T10:11:13.748Z,8.55
2022-11-18T10:13:53.548Z,8.90
2022-11-18T10:16:33.800Z,9.65
2022-11-18T10:19:13.096Z,8.55
2022-11-18T10:21:53.362Z,7.82
2022-11-18T10:24:25.648Z,7.55
2022-11-18T10:26:56.956Z,7.40
2022-11-18T10:29:26.414Z,7.40
2022-11-18T10:32:03.828Z,6.50
2022-11-18T10:34:35.075Z,6.93
2022-11-18T10:37:06.929Z,6.70
2022-11-18T10:39:51.649Z,6.88
2022-11-18T10:42:28.733Z,5.85
2022-11-18T10:45:15.799Z,6.40
2022-11-18T10:47:44.497Z,6.90
2022-11-18T10:50:30.750Z,5.93
2022-11-18T10:52:59.417Z,6.45
2022-11-18T10:55:30.042Z,6.38
2022-11-18T10:58:03.104Z,5.85
2022-11-18T11:00:42.465Z,5.45
2022-11-18T11:03:36.291Z,5.15
2022-11-18T11:06:30.375Z,5.35
2022-11-18T11:09:02.780Z,4.55
2022-11-18T11:11:35.200Z,5.22
2022-11-18T11:14:18.721Z,4.28
2022-11-18T11:16:54.878Z,4.63
2022-11-18T11:19:26.708Z,4.90
2022-11-18T11:24:27.530Z,4.20
2022-11-18T11:30:12.488Z,4.20
2022-11-18T11:33:10.300Z,4.80
2022-11-18T11:35:48.344Z,4.05
2022-11-18T11:38:27.908Z,3.83
2022-11-18T11:41:07.516Z,4.30
2022-11-18T11:43:49.777Z,3.95
2022-11-18T11:46:29.503Z,4.28
2022-11-18T11:49:11.938Z,4.25
2022-11-18T11:51:48.844Z,4.35
2022-11-18T11:54:41.908Z,4.30
2022-11-18T11:57:24.824Z,4.68
2022-11-18T12:00:03.385Z,4.03
2022-11-18T12:02:55.184Z,4.32
2022-11-18T12:05:31.271Z,4.30
2022-11-18T12:08:01.834Z,4.53
2022-11-18T12:10:37.224Z,4.80
2022-11-18T12:13:20.935Z,4.50
2022-11-18T12:16:00.324Z,4.60
2022-11-18T12:18:38.810Z,4.35
2022-11-18T12:21:07.376Z,4.40
2022-11-18T12:23:36.761Z,4.72
2022-11-18T12:26:10.887Z,4.07
2022-11-18T12:28:42.400Z,4.30
2022-11-18T12:31:40.507Z,6.05
2022-11-18T12:34:33.409Z,4.72
2022-11-18T12:37:34.751Z,4.45
2022-11-18T12:40:03.836Z,4.68
2022-11-18T12:42:59.321Z,4.47
2022-11-18T12:45:53.134Z,5.05
2022-11-18T12:48:38.243Z,4.45
2022-11-18T12:51:45.266Z,4.80
2022-11-18T12:54:27.886Z,4.70
2022-11-18T12:56:59.204Z,4.43
2022-11-18T12:59:30.287Z,4.25
2022-11-18T13:02:37.682Z,4.93
2022-11-18T13:05:10.695Z,4.25
2022-11-18T13:08:04.707Z,5.03
2022-11-18T13:10:39.095Z,4.78
2022-11-18T13:13:20.293Z,4.13
2022-11-18T13:16:09.616Z,4.53
2022-11-18T13:18:49.621Z,4.88
2022-11-18T13:21:45.875Z,4.70
2022-11-18T13:24:15.448Z,4.65
2022-11-18T13:26:47.426Z,3.97
2022-11-18T13:29:27.841Z,4.10
2022-11-18T13:32:09.767Z,4.20
2022-11-18T13:34:48.375Z,3.88
2022-11-18T13:37:21.744Z,4.70
2022-11-18T13:39:54.055Z,4.95
2022-11-18T13:42:24.237Z,4.20
2022-11-18T13:44:57.650Z,4.60
2022-11-18T13:47:32.452Z,4.70
2022-11-18T13:50:07.365Z,4.28
2022-11-18T13:52:41.147Z,4.45
2022-11-18T13:55:19.743Z,4.90
2022-11-18T13:57:51.681Z,4.65
2022-11-18T14:00:25.595Z,3.53
2022-11-18T14:02:59.195Z,3.92
2022-11-18T14:05:28.183Z,4.10
2022-11-18T14:08:06.457Z,3.78
2022-11-18T14:10:44.180Z,4.32
2022-11-18T14:13:24.009Z,3.88
2022-11-18T14:15:53.482Z,4.10
2022-11-18T14:18:32.790Z,4.13
2022-11-18T14:21:03.164Z,3.50
2022-11-18T14:23:35.292Z,4.10
2022-11-18T14:26:08.420Z,3.97
2022-11-18T14:28:40.536Z,4.07
2022-11-18T14:31:25.411Z,3.72
2022-11-18T14:34:22.412Z,3.90
2022-11-18T14:36:52.251Z,3.92
2022-11-18T14:39:26.847Z,4.40
2022-11-18T14:41:56.750Z,4.07
2022-11-18T14:44:27.655Z,4.30
2022-11-18T14:47:00.736Z,4.00
2022-11-18T14:49:31.834Z,4.00
2022-11-18T14:52:03.016Z,3.95
2022-11-18T14:54:33.466Z,4.18
2022-11-18T14:57:05.781Z,3.95
2022-11-18T14:59:35.143Z,3.70
2022-11-18T15:02:03.989Z,4.13
2022-11-18T15:04:32.621Z,4.20
2022-11-18T15:07:01.425Z,3.80
2022-11-18T15:09:30.235Z,4.38
2022-11-18T15:12:03.905Z,4.00
2022-11-18T15:14:32.562Z,4.57
2022-11-18T15:17:01.214Z,4.47
2022-11-18T15:19:32.189Z,4.38
2022-11-18T15:22:01.897Z,3.97
2022-11-18T15:24:30.845Z,3.75
2022-11-18T15:27:05.359Z,4.07
2022-11-18T15:29:34.065Z,4.25
2022-11-18T15:32:05.329Z,4.22
2022-11-18T15:34:34.162Z,4.35
2022-11-18T15:37:02.554Z,4.53
2022-11-18T15:39:31.276Z,4.65
2022-11-18T15:42:01.536Z,4.53
2022-11-18T15:44:30.580Z,4.60
2022-11-18T15:47:00.217Z,4.63
2022-11-18T15:49:29.158Z,4.45
2022-11-18T15:51:57.947Z,4.50
2022-11-18T15:54:26.388Z,4.60
2022-11-18T15:56:54.746Z,4.85
2022-11-18T15:59:24.959Z,4.93
2022-11-18T16:01:56.995Z,4.95
2022-11-18T16:04:25.350Z,4.78
2022-11-18T16:06:54.545Z,4.57
2022-11-18T16:09:23.766Z,4.72
2022-11-18T16:12:10.002Z,5.00
2022-11-18T16:14:39.971Z,5.10
2022-11-18T16:17:08.457Z,4.80
2022-11-18T16:19:37.418Z,5.22
2022-11-18T16:22:05.941Z,4.40
2022-11-18T16:24:34.909Z,4.20
2022-11-18T16:27:04.724Z,5.15
2022-11-18T16:29:33.519Z,6.28
2022-11-18T16:32:03.429Z,5.72
2022-11-18T16:34:32.710Z,5.20
2022-11-18T16:37:01.565Z,8.18
2022-11-18T16:39:30.973Z,5.60
2022-11-18T16:42:07.925Z,5.40
2022-11-18T16:44:37.146Z,4.88
2022-11-18T16:47:14.300Z,10.63
2022-11-18T16:49:44.134Z,9.77
2022-11-18T16:52:12.719Z,7.60
2022-11-18T16:54:45.338Z,5.07
2022-11-18T16:57:15.490Z,5.25
2022-11-18T16:59:44.150Z,4.75
2022-11-18T17:02:15.767Z,4.78
2022-11-18T17:07:13.902Z,4.75
2022-11-18T17:09:42.661Z,4.78
2022-11-18T17:12:11.144Z,5.43
2022-11-18T17:14:40.487Z,4.80
2022-11-18T17:17:11.029Z,4.35
2022-11-18T17:19:40.946Z,4.75
2022-11-18T17:22:09.579Z,4.88
2022-11-18T17:24:38.363Z,4.70
2022-11-18T17:27:06.931Z,4.80
2022-11-18T17:29:35.879Z,4.60
2022-11-18T17:32:04.341Z,4.60
2022-11-18T17:34:32.870Z,4.72
2022-11-18T17:37:06.815Z,4.80
2022-11-18T17:39:37.670Z,4.70
2022-11-18T17:42:18.016Z,5.18
2022-11-18T17:44:46.905Z,5.32
2022-11-18T17:47:15.323Z,4.70
2022-11-18T17:49:44.029Z,5.60
2022-11-18T17:52:14.526Z,5.13
2022-11-18T17:54:43.279Z,5.10
2022-11-18T17:57:12.216Z,16.40
2022-11-18T17:59:40.736Z,17.02
2022-11-18T18:02:12.941Z,9.70
2022-11-18T18:04:41.292Z,7.40
2022-11-18T18:07:09.717Z,7.68
2022-11-18T18:09:39.639Z,5.90
2022-11-18T18:12:22.391Z,5.15
2022-11-18T18:14:51.398Z,5.03
2022-11-18T18:17:20.299Z,6.22
2022-11-18T18:19:48.749Z,6.80
2022-11-18T18:22:17.139Z,6.65
2022-11-18T18:24:47.092Z,6.20
2022-11-18T18:27:15.596Z,7.53
2022-11-18T18:29:44.427Z,6.60
2022-11-18T18:32:13.218Z,7.40
2022-11-18T18:34:41.765Z,16.27
2022-11-18T18:37:10.215Z,17.65
2022-11-18T18:39:38.591Z,22.23
2022-11-18T18:42:08.631Z,11.52
2022-11-18T18:44:51.668Z,9.68
2022-11-18T18:47:21.856Z,8.00
2022-11-18T18:49:50.338Z,6.15
2022-11-18T18:52:19.444Z,5.88
2022-11-18T18:54:48.749Z,6.72
2022-11-18T18:57:19.258Z,5.43
2022-11-18T18:59:47.995Z,6.15
2022-11-18T19:02:16.441Z,5.80
2022-11-18T19:04:46.845Z,6.00
2022-11-18T19:07:16.974Z,9.10
2022-11-18T19:09:45.616Z,25.85
2022-11-18T19:12:31.750Z,17.65
2022-11-18T19:15:02.235Z,47.03
2022-11-18T19:17:31.098Z,42.50
2022-11-18T19:20:17.136Z,19.00
2022-11-18T19:22:45.964Z,10.00
2022-11-18T19:25:14.390Z,7.47
2022-11-18T19:27:43.742Z,6.95
2022-11-18T19:30:14.715Z,5.93
2022-11-18T19:32:43.971Z,6.05
2022-11-18T19:35:13.061Z,5.60
2022-11-18T19:37:41.986Z,6.13
2022-11-18T19:40:12.179Z,6.07
2022-11-18T19:42:42.083Z,5.68
2022-11-18T19:45:13.313Z,5.70
2022-11-18T19:47:44.077Z,5.22
2022-11-18T19:50:13.116Z,5.97
2022-11-18T19:52:41.484Z,7.93
2022-11-18T19:55:11.046Z,15.00
2022-11-18T19:57:39.820Z,11.48
2022-11-18T20:00:10.032Z,8.20
2022-11-18T20:02:40.563Z,9.60
2022-11-18T20:05:26.892Z,6.10
2022-11-18T20:07:56.978Z,5.57
2022-11-18T20:10:25.472Z,5.88
2022-11-18T20:12:54.002Z,5.32
2022-11-18T20:15:22.733Z,6.00
2022-11-18T20:17:54.894Z,5.65
2022-11-18T20:20:25.485Z,4.75
2022-11-18T20:22:55.045Z,5.10
2022-11-18T20:25:27.446Z,5.07
2022-11-18T20:27:56.304Z,4.78
2022-11-18T20:30:24.800Z,5.35
2022-11-18T20:32:54.791Z,4.72
2022-11-18T20:35:23.251Z,5.22
2022-11-18T20:37:52.401Z,4.93
2022-11-18T20:40:20.885Z,5.45
2022-11-18T20:43:07.405Z,6.00
2022-11-18T20:45:35.937Z,11.15
2022-11-18T20:48:06.413Z,8.93
2022-11-18T20:50:37.227Z,6.40
2022-11-18T20:53:05.904Z,5.65
2022-11-18T20:55:38.081Z,5.53
2022-11-18T20:58:07.441Z,6.43
2022-11-18T21:00:36.002Z,5.43
2022-11-18T21:03:05.989Z,5.13
2022-11-18T21:05:36.275Z,5.43
2022-11-18T21:08:04.895Z,4.85
2022-11-18T21:10:33.768Z,5.05
2022-11-18T21:13:19.763Z,4.35
2022-11-18T21:15:48.507Z,4.75
2022-11-18T21:18:18.895Z,5.00
2022-11-18T21:21:04.717Z,4.68
2022-11-18T21:23:33.491Z,5.22
2022-11-18T21:26:08.062Z,5.32
2022-11-18T21:28:43.958Z,5.00
2022-11-18T21:31:16.328Z,6.03
2022-11-18T21:33:50.072Z,5.28
2022-11-18T21:36:23.061Z,4.53
2022-11-18T21:38:53.735Z,5.13
2022-11-18T21:41:23.228Z,4.60
2022-11-18T21:44:09.491Z,4.40
2022-11-18T21:46:42.992Z,4.63
2022-11-18T21:49:14.329Z,4.75
2022-11-18T21:51:46.833Z,4.60
2022-11-18T21:54:18.617Z,4.78
2022-11-18T21:56:48.069Z,4.35
2022-11-18T21:59:19.494Z,4.90
2022-11-18T22:01:50.902Z,5.05
2022-11-18T22:04:40.043Z,4.95
2022-11-18T22:07:09.842Z,4.70
2022-11-18T22:09:39.385Z,5.35
2022-11-18T22:12:09.263Z,4.95
2022-11-18T22:14:37.843Z,4.78
2022-11-18T22:17:06.655Z,4.60
2022-11-18T22:19:36.920Z,4.43
2022-11-18T22:22:05.334Z,5.45
2022-11-18T22:24:33.994Z,5.65
2022-11-18T22:27:04.671Z,5.47
2022-11-18T22:29:35.973Z,5.45
2022-11-18T22:32:05.458Z,4.72
2022-11-18T22:34:34.087Z,4.57
2022-11-18T22:37:06.050Z,4.63
2022-11-18T22:39:35.307Z,5.78
2022-11-18T22:42:21.783Z,7.40
2022-11-18T22:44:50.278Z,6.72
2022-11-18T22:47:19.067Z,5.70
2022-11-18T22:49:49.888Z,8.10
2022-11-18T22:52:22.878Z,7.38
2022-11-18T22:54:51.306Z,8.88
2022-11-18T22:57:20.038Z,12.32
2022-11-18T22:59:48.683Z,6.15
2022-11-18T23:02:17.387Z,7.00
2022-11-18T23:04:45.845Z,5.88
2022-11-18T23:07:14.737Z,7.30
2022-11-18T23:09:44.655Z,5.57
2022-11-18T23:12:30.848Z,5.00
2022-11-18T23:14:59.272Z,5.55
2022-11-18T23:17:27.584Z,5.07
2022-11-18T23:19:56.117Z,5.18
2022-11-18T23:22:24.747Z,4.38
2022-11-18T23:24:54.889Z,5.03
2022-11-18T23:27:23.630Z,5.05
2022-11-18T23:29:51.878Z,4.80
2022-11-18T23:32:20.847Z,4.55
2022-11-18T23:34:49.456Z,4.22
2022-11-18T23:37:18.231Z,5.07
2022-11-18T23:39:46.577Z,4.88
2022-11-18T23:42:16.307Z,5.20
2022-11-18T23:44:49.285Z,4.82
2022-11-18T23:47:18.953Z,4.53
2022-11-18T23:49:47.245Z,5.40
2022-11-18T23:52:16.028Z,4.68
2022-11-18T23:54:45.040Z,5.07
2022-11-18T23:57:13.533Z,4.72
2022-11-18T23:59:43.653Z,4.95
